sensor_id;sensor_type;location;lat;lon;timestamp;temperature;humidity
49549;DHT22;35450;44.518;7.466;2022-09-02T00:02:31;22.10;91.80
49549;DHT22;35450;44.518;7.466;2022-09-02T00:05:36;22.00;92.00
49549;DHT22;35450;44.518;7.466;2022-09-02T00:08:40;22.00;92.20
49549;DHT22;35450;44.518;7.466;2022-09-02T00:11:47;21.90;92.30
49549;DHT22;35450;44.518;7.466;2022-09-02T00:14:51;21.90;92.40
49549;DHT22;35450;44.518;7.466;2022-09-02T00:17:54;21.80;92.40
49549;DHT22;35450;44.518;7.466;2022-09-02T00:20:58;21.70;92.40
49549;DHT22;35450;44.518;7.466;2022-09-02T00:24:04;21.50;92.20
49549;DHT22;35450;44.518;7.466;2022-09-02T00:27:08;21.40;92.50
49549;DHT22;35450;44.518;7.466;2022-09-02T00:30:12;21.10;92.60
49549;DHT22;35450;44.518;7.466;2022-09-02T00:33:17;21.10;92.60
49549;DHT22;35450;44.518;7.466;2022-09-02T00:36:21;21.00;92.70
49549;DHT22;35450;44.518;7.466;2022-09-02T00:39:25;21.00;92.70
49549;DHT22;35450;44.518;7.466;2022-09-02T00:42:29;21.00;92.80
49549;DHT22;35450;44.518;7.466;2022-09-02T00:45:34;21.00;92.70
49549;DHT22;35450;44.518;7.466;2022-09-02T00:49:05;21.10;92.60
49549;DHT22;35450;44.518;7.466;2022-09-02T00:52:12;21.10;92.80
49549;DHT22;35450;44.518;7.466;2022-09-02T00:55:21;21.20;92.40
49549;DHT22;35450;44.518;7.466;2022-09-02T00:58:30;21.20;92.30
49549;DHT22;35450;44.518;7.466;2022-09-02T01:01:36;21.30;92.20
49549;DHT22;35450;44.518;7.466;2022-09-02T01:04:40;21.30;92.10
49549;DHT22;35450;44.518;7.466;2022-09-02T01:07:45;21.40;92.10
49549;DHT22;35450;44.518;7.466;2022-09-02T01:10:51;21.40;91.60
49549;DHT22;35450;44.518;7.466;2022-09-02T01:13:58;21.20;91.90
49549;DHT22;35450;44.518;7.466;2022-09-02T01:17:01;21.20;92.00
49549;DHT22;35450;44.518;7.466;2022-09-02T01:20:10;21.30;92.00
49549;DHT22;35450;44.518;7.466;2022-09-02T01:23:15;21.30;92.00
49549;DHT22;35450;44.518;7.466;2022-09-02T01:26:21;21.20;92.00
49549;DHT22;35450;44.518;7.466;2022-09-02T01:29:26;21.30;91.90
49549;DHT22;35450;44.518;7.466;2022-09-02T01:32:32;21.30;91.70
49549;DHT22;35450;44.518;7.466;2022-09-02T01:35:36;21.30;91.60
49549;DHT22;35450;44.518;7.466;2022-09-02T01:38:40;21.30;91.50
49549;DHT22;35450;44.518;7.466;2022-09-02T01:41:45;21.40;91.40
49549;DHT22;35450;44.518;7.466;2022-09-02T01:44:50;21.30;91.40
49549;DHT22;35450;44.518;7.466;2022-09-02T01:47:55;21.30;91.60
49549;DHT22;35450;44.518;7.466;2022-09-02T01:51:02;21.30;91.50
49549;DHT22;35450;44.518;7.466;2022-09-02T01:54:06;21.30;91.50
49549;DHT22;35450;44.518;7.466;2022-09-02T01:57:11;21.20;91.60
49549;DHT22;35450;44.518;7.466;2022-09-02T02:00:15;21.20;91.80
49549;DHT22;35450;44.518;7.466;2022-09-02T02:03:19;21.20;91.70
49549;DHT22;35450;44.518;7.466;2022-09-02T02:06:24;21.20;91.60
49549;DHT22;35450;44.518;7.466;2022-09-02T02:09:30;21.20;91.80
49549;DHT22;35450;44.518;7.466;2022-09-02T02:12:34;21.20;91.70
49549;DHT22;35450;44.518;7.466;2022-09-02T02:15:43;21.20;91.70
49549;DHT22;35450;44.518;7.466;2022-09-02T02:18:47;21.30;91.80
49549;DHT22;35450;44.518;7.466;2022-09-02T02:21:52;21.20;91.70
49549;DHT22;35450;44.518;7.466;2022-09-02T02:24:56;21.30;91.80
49549;DHT22;35450;44.518;7.466;2022-09-02T02:28:01;21.30;91.90
49549;DHT22;35450;44.518;7.466;2022-09-02T02:31:05;21.20;92.20
49549;DHT22;35450;44.518;7.466;2022-09-02T02:34:09;21.10;92.50
49549;DHT22;35450;44.518;7.466;2022-09-02T02:37:13;21.00;92.60
49549;DHT22;35450;44.518;7.466;2022-09-02T02:40:19;20.90;92.70
49549;DHT22;35450;44.518;7.466;2022-09-02T02:43:25;20.80;92.80
49549;DHT22;35450;44.518;7.466;2022-09-02T02:46:29;20.70;92.80
49549;DHT22;35450;44.518;7.466;2022-09-02T02:49:39;20.70;92.70
49549;DHT22;35450;44.518;7.466;2022-09-02T02:52:44;20.70;92.80
49549;DHT22;35450;44.518;7.466;2022-09-02T02:55:48;20.60;92.80
49549;DHT22;35450;44.518;7.466;2022-09-02T02:58:52;20.60;92.80
49549;DHT22;35450;44.518;7.466;2022-09-02T03:01:56;20.60;92.70
49549;DHT22;35450;44.518;7.466;2022-09-02T03:05:02;20.60;92.90
49549;DHT22;35450;44.518;7.466;2022-09-02T03:08:08;20.50;92.70
49549;DHT22;35450;44.518;7.466;2022-09-02T03:11:13;20.60;92.60
49549;DHT22;35450;44.518;7.466;2022-09-02T03:14:17;20.60;92.30
49549;DHT22;35450;44.518;7.466;2022-09-02T03:17:22;20.70;92.20
49549;DHT22;35450;44.518;7.466;2022-09-02T03:20:26;20.70;92.00
49549;DHT22;35450;44.518;7.466;2022-09-02T03:23:34;20.60;92.00
49549;DHT22;35450;44.518;7.466;2022-09-02T03:26:40;20.60;91.90
49549;DHT22;35450;44.518;7.466;2022-09-02T03:29:45;20.50;92.10
49549;DHT22;35450;44.518;7.466;2022-09-02T03:32:51;20.50;92.30
49549;DHT22;35450;44.518;7.466;2022-09-02T03:35:55;20.50;92.40
49549;DHT22;35450;44.518;7.466;2022-09-02T03:39:00;20.50;92.40
49549;DHT22;35450;44.518;7.466;2022-09-02T03:42:07;20.40;92.40
49549;DHT22;35450;44.518;7.466;2022-09-02T03:45:12;20.40;92.30
49549;DHT22;35450;44.518;7.466;2022-09-02T03:48:19;20.40;92.20
49549;DHT22;35450;44.518;7.466;2022-09-02T03:51:26;20.30;92.10
49549;DHT22;35450;44.518;7.466;2022-09-02T03:54:30;20.30;92.20
49549;DHT22;35450;44.518;7.466;2022-09-02T03:57:35;20.30;92.20
49549;DHT22;35450;44.518;7.466;2022-09-02T04:00:39;20.30;92.10
49549;DHT22;35450;44.518;7.466;2022-09-02T04:03:44;20.30;92.20
49549;DHT22;35450;44.518;7.466;2022-09-02T04:06:49;20.20;92.00
49549;DHT22;35450;44.518;7.466;2022-09-02T04:09:52;20.20;92.10
49549;DHT22;35450;44.518;7.466;2022-09-02T04:12:59;20.20;92.20
49549;DHT22;35450;44.518;7.466;2022-09-02T04:16:07;20.40;91.90
49549;DHT22;35450;44.518;7.466;2022-09-02T04:19:12;20.40;92.00
49549;DHT22;35450;44.518;7.466;2022-09-02T04:22:17;20.40;92.00
49549;DHT22;35450;44.518;7.466;2022-09-02T04:25:21;20.40;91.80
49549;DHT22;35450;44.518;7.466;2022-09-02T04:28:26;20.40;91.70
49549;DHT22;35450;44.518;7.466;2022-09-02T04:31:31;20.40;91.70
49549;DHT22;35450;44.518;7.466;2022-09-02T04:34:35;20.50;91.50
49549;DHT22;35450;44.518;7.466;2022-09-02T04:37:40;20.50;91.40
49549;DHT22;35450;44.518;7.466;2022-09-02T04:40:46;20.60;91.30
49549;DHT22;35450;44.518;7.466;2022-09-02T04:43:53;20.60;91.30
49549;DHT22;35450;44.518;7.466;2022-09-02T04:46:57;20.70;91.50
49549;DHT22;35450;44.518;7.466;2022-09-02T04:50:02;20.80;91.20
49549;DHT22;35450;44.518;7.466;2022-09-02T04:53:08;20.80;91.30
49549;DHT22;35450;44.518;7.466;2022-09-02T04:56:18;20.70;91.30
49549;DHT22;35450;44.518;7.466;2022-09-02T04:59:24;20.70;91.40
49549;DHT22;35450;44.518;7.466;2022-09-02T05:02:42;20.70;91.60
49549;DHT22;35450;44.518;7.466;2022-09-02T05:06:00;20.70;91.70
49549;DHT22;35450;44.518;7.466;2022-09-02T05:09:05;20.80;91.80
49549;DHT22;35450;44.518;7.466;2022-09-02T05:12:12;20.80;91.80
49549;DHT22;35450;44.518;7.466;2022-09-02T05:15:28;20.80;91.80
49549;DHT22;35450;44.518;7.466;2022-09-02T05:18:32;20.70;92.00
49549;DHT22;35450;44.518;7.466;2022-09-02T05:21:42;20.70;92.20
49549;DHT22;35450;44.518;7.466;2022-09-02T05:24:49;20.80;92.20
49549;DHT22;35450;44.518;7.466;2022-09-02T05:27:53;20.70;92.20
49549;DHT22;35450;44.518;7.466;2022-09-02T05:31:02;20.70;92.00
49549;DHT22;35450;44.518;7.466;2022-09-02T05:34:09;20.70;92.00
49549;DHT22;35450;44.518;7.466;2022-09-02T05:37:13;20.80;91.80
49549;DHT22;35450;44.518;7.466;2022-09-02T05:40:18;20.70;92.00
49549;DHT22;35450;44.518;7.466;2022-09-02T05:43:23;20.70;92.10
49549;DHT22;35450;44.518;7.466;2022-09-02T05:46:28;20.60;92.20
49549;DHT22;35450;44.518;7.466;2022-09-02T05:49:33;20.60;92.30
49549;DHT22;35450;44.518;7.466;2022-09-02T05:52:42;20.60;92.30
49549;DHT22;35450;44.518;7.466;2022-09-02T05:55:47;20.70;92.10
49549;DHT22;35450;44.518;7.466;2022-09-02T05:58:51;20.70;92.20
49549;DHT22;35450;44.518;7.466;2022-09-02T06:01:57;20.60;92.20
49549;DHT22;35450;44.518;7.466;2022-09-02T06:05:02;20.70;92.30
49549;DHT22;35450;44.518;7.466;2022-09-02T06:08:07;20.60;92.30
49549;DHT22;35450;44.518;7.466;2022-09-02T06:11:12;20.60;92.20
49549;DHT22;35450;44.518;7.466;2022-09-02T06:14:19;20.60;92.20
49549;DHT22;35450;44.518;7.466;2022-09-02T06:17:26;20.60;92.30
49549;DHT22;35450;44.518;7.466;2022-09-02T06:20:30;20.60;92.20
49549;DHT22;35450;44.518;7.466;2022-09-02T06:23:37;20.70;91.90
49549;DHT22;35450;44.518;7.466;2022-09-02T06:26:42;20.70;91.90
49549;DHT22;35450;44.518;7.466;2022-09-02T06:29:46;20.70;91.90
49549;DHT22;35450;44.518;7.466;2022-09-02T06:32:56;20.80;92.00
49549;DHT22;35450;44.518;7.466;2022-09-02T06:35:59;20.90;91.90
49549;DHT22;35450;44.518;7.466;2022-09-02T06:39:04;20.90;92.10
49549;DHT22;35450;44.518;7.466;2022-09-02T06:42:10;20.80;92.10
49549;DHT22;35450;44.518;7.466;2022-09-02T06:45:22;20.80;91.90
49549;DHT22;35450;44.518;7.466;2022-09-02T06:48:27;20.90;91.70
49549;DHT22;35450;44.518;7.466;2022-09-02T06:51:36;21.00;91.70
49549;DHT22;35450;44.518;7.466;2022-09-02T06:54:41;21.00;91.70
49549;DHT22;35450;44.518;7.466;2022-09-02T06:57:50;21.10;91.60
49549;DHT22;35450;44.518;7.466;2022-09-02T07:00:56;21.10;91.40
49549;DHT22;35450;44.518;7.466;2022-09-02T07:04:02;21.00;91.60
49549;DHT22;35450;44.518;7.466;2022-09-02T07:07:26;21.10;91.50
49549;DHT22;35450;44.518;7.466;2022-09-02T07:10:40;21.00;91.70
49549;DHT22;35450;44.518;7.466;2022-09-02T07:13:46;21.10;91.70
49549;DHT22;35450;44.518;7.466;2022-09-02T07:16:52;21.20;91.60
49549;DHT22;35450;44.518;7.466;2022-09-02T07:19:56;21.20;91.50
49549;DHT22;35450;44.518;7.466;2022-09-02T07:23:04;21.30;91.40
49549;DHT22;35450;44.518;7.466;2022-09-02T07:26:13;21.30;91.40
49549;DHT22;35450;44.518;7.466;2022-09-02T07:29:20;21.40;91.30
49549;DHT22;35450;44.518;7.466;2022-09-02T07:32:24;21.50;91.20
49549;DHT22;35450;44.518;7.466;2022-09-02T07:35:29;21.50;91.10
49549;DHT22;35450;44.518;7.466;2022-09-02T07:38:36;21.60;90.90
49549;DHT22;35450;44.518;7.466;2022-09-02T07:41:43;21.60;90.80
49549;DHT22;35450;44.518;7.466;2022-09-02T07:44:47;21.50;90.90
49549;DHT22;35450;44.518;7.466;2022-09-02T07:47:52;21.50;91.30
49549;DHT22;35450;44.518;7.466;2022-09-02T07:50:58;21.50;91.70
49549;DHT22;35450;44.518;7.466;2022-09-02T07:54:05;21.60;91.40
49549;DHT22;35450;44.518;7.466;2022-09-02T07:57:10;21.50;91.60
49549;DHT22;35450;44.518;7.466;2022-09-02T08:00:16;21.40;91.70
49549;DHT22;35450;44.518;7.466;2022-09-02T08:03:25;21.40;91.80
49549;DHT22;35450;44.518;7.466;2022-09-02T08:06:32;21.40;91.70
49549;DHT22;35450;44.518;7.466;2022-09-02T08:09:37;21.40;91.60
49549;DHT22;35450;44.518;7.466;2022-09-02T08:12:48;21.40;91.80
49549;DHT22;35450;44.518;7.466;2022-09-02T08:16:06;21.40;91.90
49549;DHT22;35450;44.518;7.466;2022-09-02T08:19:10;21.50;92.00
49549;DHT22;35450;44.518;7.466;2022-09-02T08:22:15;21.40;92.10
49549;DHT22;35450;44.518;7.466;2022-09-02T08:25:19;21.40;92.30
49549;DHT22;35450;44.518;7.466;2022-09-02T08:28:23;21.40;92.40
49549;DHT22;35450;44.518;7.466;2022-09-02T08:31:27;21.50;92.30
49549;DHT22;35450;44.518;7.466;2022-09-02T08:34:31;21.50;92.20
49549;DHT22;35450;44.518;7.466;2022-09-02T08:37:37;21.50;92.30
49549;DHT22;35450;44.518;7.466;2022-09-02T08:40:41;21.50;92.40
49549;DHT22;35450;44.518;7.466;2022-09-02T08:43:46;21.60;92.50
49549;DHT22;35450;44.518;7.466;2022-09-02T08:46:57;21.70;92.60
49549;DHT22;35450;44.518;7.466;2022-09-02T08:50:18;21.70;92.00
49549;DHT22;35450;44.518;7.466;2022-09-02T08:54:12;21.80;91.90
49549;DHT22;35450;44.518;7.466;2022-09-02T08:57:18;21.90;92.00
49549;DHT22;35450;44.518;7.466;2022-09-02T09:00:23;22.10;91.60
49549;DHT22;35450;44.518;7.466;2022-09-02T09:03:32;22.10;91.30
49549;DHT22;35450;44.518;7.466;2022-09-02T09:17:07;21.90;91.50
49549;DHT22;35450;44.518;7.466;2022-09-02T09:20:17;22.00;91.30
49549;DHT22;35450;44.518;7.466;2022-09-02T09:23:30;22.00;91.20
49549;DHT22;35450;44.518;7.466;2022-09-02T09:26:38;22.00;91.20
49549;DHT22;35450;44.518;7.466;2022-09-02T09:29:43;22.00;91.10
49549;DHT22;35450;44.518;7.466;2022-09-02T09:32:58;22.00;91.10
49549;DHT22;35450;44.518;7.466;2022-09-02T09:36:02;22.00;91.00
49549;DHT22;35450;44.518;7.466;2022-09-02T09:39:27;22.10;90.90
49549;DHT22;35450;44.518;7.466;2022-09-02T09:42:35;22.20;91.00
49549;DHT22;35450;44.518;7.466;2022-09-02T09:48:49;22.30;90.90
49549;DHT22;35450;44.518;7.466;2022-09-02T09:51:54;22.30;91.00
49549;DHT22;35450;44.518;7.466;2022-09-02T09:55:19;22.30;90.80
49549;DHT22;35450;44.518;7.466;2022-09-02T09:58:44;22.30;91.10
49549;DHT22;35450;44.518;7.466;2022-09-02T10:01:49;22.40;90.80
49549;DHT22;35450;44.518;7.466;2022-09-02T10:05:10;22.50;91.00
49549;DHT22;35450;44.518;7.466;2022-09-02T10:08:24;22.40;91.00
49549;DHT22;35450;44.518;7.466;2022-09-02T10:11:30;22.40;91.00
49549;DHT22;35450;44.518;7.466;2022-09-02T10:14:43;22.50;90.60
49549;DHT22;35450;44.518;7.466;2022-09-02T10:17:57;22.50;90.70
49549;DHT22;35450;44.518;7.466;2022-09-02T10:21:40;22.50;91.10
49549;DHT22;35450;44.518;7.466;2022-09-02T10:31:48;22.60;90.50
49549;DHT22;35450;44.518;7.466;2022-09-02T10:41:44;22.70;91.00
49549;DHT22;35450;44.518;7.466;2022-09-02T10:48:48;22.80;90.60
49549;DHT22;35450;44.518;7.466;2022-09-02T10:59:08;22.40;90.60
49549;DHT22;35450;44.518;7.466;2022-09-02T11:15:36;22.70;88.30
49549;DHT22;35450;44.518;7.466;2022-09-02T11:22:36;22.50;89.60
49549;DHT22;35450;44.518;7.466;2022-09-02T11:25:58;22.30;89.60
49549;DHT22;35450;44.518;7.466;2022-09-02T11:32:16;22.40;89.20
49549;DHT22;35450;44.518;7.466;2022-09-02T11:35:39;22.60;88.80
49549;DHT22;35450;44.518;7.466;2022-09-02T11:38:50;22.50;90.00
49549;DHT22;35450;44.518;7.466;2022-09-02T11:55:37;22.30;90.30
49549;DHT22;35450;44.518;7.466;2022-09-02T11:58:45;22.50;90.30
49549;DHT22;35450;44.518;7.466;2022-09-02T12:01:53;22.50;90.00
49549;DHT22;35450;44.518;7.466;2022-09-02T12:11:48;22.70;89.40
49549;DHT22;35450;44.518;7.466;2022-09-02T12:18:26;22.70;89.70
49549;DHT22;35450;44.518;7.466;2022-09-02T12:21:31;22.60;90.10
49549;DHT22;35450;44.518;7.466;2022-09-02T12:28:23;22.60;89.10
49549;DHT22;35450;44.518;7.466;2022-09-02T12:31:40;22.60;89.80
49549;DHT22;35450;44.518;7.466;2022-09-02T12:34:51;22.70;89.50
49549;DHT22;35450;44.518;7.466;2022-09-02T12:37:56;22.60;89.70
49549;DHT22;35450;44.518;7.466;2022-09-02T12:50:57;22.30;90.30
49549;DHT22;35450;44.518;7.466;2022-09-02T12:54:03;22.30;89.70
49549;DHT22;35450;44.518;7.466;2022-09-02T12:57:09;22.40;89.80
49549;DHT22;35450;44.518;7.466;2022-09-02T13:00:16;22.30;90.20
49549;DHT22;35450;44.518;7.466;2022-09-02T13:03:46;22.30;90.30
49549;DHT22;35450;44.518;7.466;2022-09-02T13:31:22;22.30;90.30
49549;DHT22;35450;44.518;7.466;2022-09-02T13:34:28;22.40;90.30
49549;DHT22;35450;44.518;7.466;2022-09-02T13:40:38;22.40;90.30
49549;DHT22;35450;44.518;7.466;2022-09-02T13:43:42;22.30;90.50
49549;DHT22;35450;44.518;7.466;2022-09-02T13:46:52;22.40;90.30
49549;DHT22;35450;44.518;7.466;2022-09-02T13:49:57;22.30;90.80
49549;DHT22;35450;44.518;7.466;2022-09-02T13:53:05;22.30;91.10
49549;DHT22;35450;44.518;7.466;2022-09-02T13:56:13;22.20;90.40
49549;DHT22;35450;44.518;7.466;2022-09-02T13:59:36;22.20;90.50
49549;DHT22;35450;44.518;7.466;2022-09-02T14:02:40;22.20;90.60
49549;DHT22;35450;44.518;7.466;2022-09-02T14:05:56;22.30;90.70
49549;DHT22;35450;44.518;7.466;2022-09-02T14:09:04;22.20;90.70
49549;DHT22;35450;44.518;7.466;2022-09-02T14:12:09;22.30;90.80
49549;DHT22;35450;44.518;7.466;2022-09-02T14:15:16;22.30;90.70
49549;DHT22;35450;44.518;7.466;2022-09-02T14:18:21;22.40;90.30
49549;DHT22;35450;44.518;7.466;2022-09-02T14:21:27;22.50;90.00
49549;DHT22;35450;44.518;7.466;2022-09-02T14:24:38;22.50;90.10
49549;DHT22;35450;44.518;7.466;2022-09-02T14:27:50;22.40;90.20
49549;DHT22;35450;44.518;7.466;2022-09-02T14:30:59;22.50;90.10
49549;DHT22;35450;44.518;7.466;2022-09-02T14:34:03;22.50;90.00
49549;DHT22;35450;44.518;7.466;2022-09-02T14:37:27;22.50;90.00
49549;DHT22;35450;44.518;7.466;2022-09-02T14:40:36;22.60;89.70
49549;DHT22;35450;44.518;7.466;2022-09-02T14:43:58;22.60;89.90
49549;DHT22;35450;44.518;7.466;2022-09-02T14:47:05;22.50;89.70
49549;DHT22;35450;44.518;7.466;2022-09-02T14:50:11;22.60;90.00
49549;DHT22;35450;44.518;7.466;2022-09-02T14:53:21;22.60;89.80
49549;DHT22;35450;44.518;7.466;2022-09-02T14:56:45;22.50;89.40
49549;DHT22;35450;44.518;7.466;2022-09-02T14:59:50;22.50;89.70
49549;DHT22;35450;44.518;7.466;2022-09-02T15:02:55;22.50;89.90
49549;DHT22;35450;44.518;7.466;2022-09-02T15:06:00;22.40;90.00
49549;DHT22;35450;44.518;7.466;2022-09-02T15:09:05;22.40;89.80
49549;DHT22;35450;44.518;7.466;2022-09-02T15:12:09;22.40;90.00
49549;DHT22;35450;44.518;7.466;2022-09-02T15:15:15;22.40;90.50
49549;DHT22;35450;44.518;7.466;2022-09-02T15:18:19;22.30;90.50
49549;DHT22;35450;44.518;7.466;2022-09-02T15:21:23;22.30;90.60
49549;DHT22;35450;44.518;7.466;2022-09-02T15:24:27;22.30;90.70
49549;DHT22;35450;44.518;7.466;2022-09-02T15:27:31;22.20;90.70
49549;DHT22;35450;44.518;7.466;2022-09-02T15:30:36;22.30;90.90
49549;DHT22;35450;44.518;7.466;2022-09-02T15:33:40;22.20;91.40
49549;DHT22;35450;44.518;7.466;2022-09-02T15:36:45;22.20;91.20
49549;DHT22;35450;44.518;7.466;2022-09-02T15:39:49;22.10;91.80
49549;DHT22;35450;44.518;7.466;2022-09-02T15:42:53;22.10;92.20
49549;DHT22;35450;44.518;7.466;2022-09-02T15:45:58;22.00;92.40
49549;DHT22;35450;44.518;7.466;2022-09-02T15:49:07;22.10;92.60
49549;DHT22;35450;44.518;7.466;2022-09-02T15:52:12;22.00;93.00
49549;DHT22;35450;44.518;7.466;2022-09-02T15:55:16;21.90;93.40
49549;DHT22;35450;44.518;7.466;2022-09-02T15:58:20;21.90;93.20
49549;DHT22;35450;44.518;7.466;2022-09-02T16:01:26;21.90;93.60
49549;DHT22;35450;44.518;7.466;2022-09-02T16:04:30;22.00;93.80
49549;DHT22;35450;44.518;7.466;2022-09-02T16:07:34;21.90;94.00
49549;DHT22;35450;44.518;7.466;2022-09-02T16:10:38;22.10;94.10
49549;DHT22;35450;44.518;7.466;2022-09-02T16:13:43;22.40;93.50
49549;DHT22;35450;44.518;7.466;2022-09-02T16:16:49;23.10;92.50
49549;DHT22;35450;44.518;7.466;2022-09-02T16:19:53;23.20;91.50
49549;DHT22;35450;44.518;7.466;2022-09-02T16:22:57;23.30;90.90
49549;DHT22;35450;44.518;7.466;2022-09-02T16:26:14;23.30;90.80
49549;DHT22;35450;44.518;7.466;2022-09-02T16:29:19;23.20;90.70
49549;DHT22;35450;44.518;7.466;2022-09-02T16:32:23;23.10;90.40
49549;DHT22;35450;44.518;7.466;2022-09-02T16:35:27;23.00;90.30
49549;DHT22;35450;44.518;7.466;2022-09-02T16:38:31;22.80;90.50
49549;DHT22;35450;44.518;7.466;2022-09-02T16:41:39;22.70;91.00
49549;DHT22;35450;44.518;7.466;2022-09-02T16:44:45;22.70;90.90
49549;DHT22;35450;44.518;7.466;2022-09-02T16:47:50;22.90;90.30
49549;DHT22;35450;44.518;7.466;2022-09-02T16:50:54;23.10;90.20
49549;DHT22;35450;44.518;7.466;2022-09-02T16:54:00;23.40;89.80
49549;DHT22;35450;44.518;7.466;2022-09-02T16:57:05;23.60;88.80
49549;DHT22;35450;44.518;7.466;2022-09-02T17:00:09;23.50;88.00
49549;DHT22;35450;44.518;7.466;2022-09-02T17:03:14;23.50;87.10
49549;DHT22;35450;44.518;7.466;2022-09-02T17:06:18;23.40;87.60
49549;DHT22;35450;44.518;7.466;2022-09-02T17:09:22;23.20;87.80
49549;DHT22;35450;44.518;7.466;2022-09-02T17:12:26;23.00;88.20
49549;DHT22;35450;44.518;7.466;2022-09-02T17:15:30;23.00;88.70
49549;DHT22;35450;44.518;7.466;2022-09-02T17:18:34;23.00;89.50
49549;DHT22;35450;44.518;7.466;2022-09-02T17:21:46;22.90;89.90
49549;DHT22;35450;44.518;7.466;2022-09-02T17:24:50;22.80;90.10
49549;DHT22;35450;44.518;7.466;2022-09-02T17:27:55;22.80;90.30
49549;DHT22;35450;44.518;7.466;2022-09-02T17:30:59;22.80;90.80
49549;DHT22;35450;44.518;7.466;2022-09-02T17:34:06;22.70;91.40
49549;DHT22;35450;44.518;7.466;2022-09-02T17:37:10;22.50;91.90
49549;DHT22;35450;44.518;7.466;2022-09-02T17:40:14;22.10;92.40
49549;DHT22;35450;44.518;7.466;2022-09-02T17:43:36;22.00;92.50
49549;DHT22;35450;44.518;7.466;2022-09-02T17:46:42;21.90;93.00
49549;DHT22;35450;44.518;7.466;2022-09-02T17:49:47;21.70;93.40
49549;DHT22;35450;44.518;7.466;2022-09-02T17:52:52;21.70;93.30
49549;DHT22;35450;44.518;7.466;2022-09-02T17:56:04;21.70;93.40
49549;DHT22;35450;44.518;7.466;2022-09-02T17:59:34;21.50;93.60
49549;DHT22;35450;44.518;7.466;2022-09-02T18:02:52;21.40;93.60
49549;DHT22;35450;44.518;7.466;2022-09-02T18:06:07;21.30;93.80
49549;DHT22;35450;44.518;7.466;2022-09-02T18:09:13;21.20;93.90
49549;DHT22;35450;44.518;7.466;2022-09-02T18:12:18;21.20;93.90
49549;DHT22;35450;44.518;7.466;2022-09-02T18:15:22;21.10;93.80
49549;DHT22;35450;44.518;7.466;2022-09-02T18:18:26;20.80;94.20
49549;DHT22;35450;44.518;7.466;2022-09-02T18:21:49;20.80;94.30
49549;DHT22;35450;44.518;7.466;2022-09-02T18:28:44;20.70;93.90
49549;DHT22;35450;44.518;7.466;2022-09-02T18:35:19;20.50;94.10
49549;DHT22;35450;44.518;7.466;2022-09-02T18:48:34;20.50;94.40
49549;DHT22;35450;44.518;7.466;2022-09-02T18:51:42;20.30;94.60
49549;DHT22;35450;44.518;7.466;2022-09-02T18:54:49;20.20;94.60
49549;DHT22;35450;44.518;7.466;2022-09-02T18:58:00;20.10;94.70
49549;DHT22;35450;44.518;7.466;2022-09-02T19:01:31;20.10;94.60
49549;DHT22;35450;44.518;7.466;2022-09-02T19:04:38;20.10;94.60
49549;DHT22;35450;44.518;7.466;2022-09-02T19:07:43;20.20;94.70
49549;DHT22;35450;44.518;7.466;2022-09-02T19:11:23;20.20;94.80
49549;DHT22;35450;44.518;7.466;2022-09-02T19:14:29;20.20;94.80
49549;DHT22;35450;44.518;7.466;2022-09-02T19:17:34;20.20;94.80
49549;DHT22;35450;44.518;7.466;2022-09-02T19:20:39;20.20;94.90
49549;DHT22;35450;44.518;7.466;2022-09-02T19:23:43;20.30;94.70
49549;DHT22;35450;44.518;7.466;2022-09-02T19:26:47;20.30;94.80
49549;DHT22;35450;44.518;7.466;2022-09-02T19:29:54;20.20;94.80
49549;DHT22;35450;44.518;7.466;2022-09-02T19:33:04;20.20;94.90
49549;DHT22;35450;44.518;7.466;2022-09-02T19:36:08;20.20;95.00
49549;DHT22;35450;44.518;7.466;2022-09-02T19:39:13;20.20;94.90
49549;DHT22;35450;44.518;7.466;2022-09-02T19:42:17;20.20;94.80
49549;DHT22;35450;44.518;7.466;2022-09-02T19:45:23;20.10;94.90
49549;DHT22;35450;44.518;7.466;2022-09-02T19:48:31;20.20;94.80
49549;DHT22;35450;44.518;7.466;2022-09-02T19:51:38;20.20;94.90
49549;DHT22;35450;44.518;7.466;2022-09-02T19:54:42;20.10;95.00
49549;DHT22;35450;44.518;7.466;2022-09-02T19:57:46;20.10;95.00
49549;DHT22;35450;44.518;7.466;2022-09-02T20:00:50;20.20;94.90
49549;DHT22;35450;44.518;7.466;2022-09-02T20:03:56;20.10;94.90
49549;DHT22;35450;44.518;7.466;2022-09-02T20:07:00;20.10;95.10
49549;DHT22;35450;44.518;7.466;2022-09-02T20:10:05;20.00;95.20
49549;DHT22;35450;44.518;7.466;2022-09-02T20:13:12;20.10;95.20
49549;DHT22;35450;44.518;7.466;2022-09-02T20:16:21;20.10;95.10
49549;DHT22;35450;44.518;7.466;2022-09-02T20:19:25;20.10;95.00
49549;DHT22;35450;44.518;7.466;2022-09-02T20:22:29;20.10;94.90
49549;DHT22;35450;44.518;7.466;2022-09-02T20:29:06;20.20;94.80
49549;DHT22;35450;44.518;7.466;2022-09-02T20:49:55;19.90;95.10
49549;DHT22;35450;44.518;7.466;2022-09-02T21:03:01;20.00;95.20
49549;DHT22;35450;44.518;7.466;2022-09-02T21:06:09;20.00;95.10
49549;DHT22;35450;44.518;7.466;2022-09-02T21:12:51;20.00;95.20
49549;DHT22;35450;44.518;7.466;2022-09-02T21:15:58;20.00;95.10
49549;DHT22;35450;44.518;7.466;2022-09-02T21:20:05;20.00;95.20
49549;DHT22;35450;44.518;7.466;2022-09-02T21:22:44;19.90;95.40
49549;DHT22;35450;44.518;7.466;2022-09-02T21:25:54;20.00;95.10
49549;DHT22;35450;44.518;7.466;2022-09-02T21:29:09;20.00;95.30
49549;DHT22;35450;44.518;7.466;2022-09-02T21:32:49;20.00;95.20
49549;DHT22;35450;44.518;7.466;2022-09-02T21:35:53;20.00;95.30
49549;DHT22;35450;44.518;7.466;2022-09-02T21:39:00;20.10;95.00
49549;DHT22;35450;44.518;7.466;2022-09-02T21:45:50;20.20;95.00
49549;DHT22;35450;44.518;7.466;2022-09-02T22:03:22;20.20;95.30
49549;DHT22;35450;44.518;7.466;2022-09-02T22:06:43;20.30;95.10
49549;DHT22;35450;44.518;7.466;2022-09-02T22:09:58;20.40;94.80
49549;DHT22;35450;44.518;7.466;2022-09-02T22:13:06;20.40;94.80
49549;DHT22;35450;44.518;7.466;2022-09-02T22:19:33;20.40;94.80
49549;DHT22;35450;44.518;7.466;2022-09-02T22:22:51;20.40;94.90
49549;DHT22;35450;44.518;7.466;2022-09-02T22:26:08;20.40;94.90
49549;DHT22;35450;44.518;7.466;2022-09-02T22:29:30;20.40;94.90
49549;DHT22;35450;44.518;7.466;2022-09-02T22:32:40;20.30;94.90
49549;DHT22;35450;44.518;7.466;2022-09-02T22:35:54;20.20;95.10
49549;DHT22;35450;44.518;7.466;2022-09-02T22:39:00;20.10;95.30
49549;DHT22;35450;44.518;7.466;2022-09-02T22:45:22;20.20;95.30
49549;DHT22;35450;44.518;7.466;2022-09-02T22:48:50;20.30;95.10
49549;DHT22;35450;44.518;7.466;2022-09-02T22:52:30;20.30;95.10
49549;DHT22;35450;44.518;7.466;2022-09-02T22:56:03;20.30;95.10
49549;DHT22;35450;44.518;7.466;2022-09-02T22:59:32;20.20;95.10
49549;DHT22;35450;44.518;7.466;2022-09-02T23:02:52;20.30;94.90
49549;DHT22;35450;44.518;7.466;2022-09-02T23:06:21;20.20;95.00
49549;DHT22;35450;44.518;7.466;2022-09-02T23:09:27;20.20;94.80